createdAt,value
2022-09-18T00:00:08.447Z,11.44
2022-09-18T00:00:18.608Z,11.45
2022-09-18T00:00:28.679Z,11.45
2022-09-18T00:00:38.747Z,11.44
2022-09-18T00:00:48.851Z,11.42
2022-09-18T00:00:58.899Z,11.44
2022-09-18T00:01:08.980Z,11.44
2022-09-18T00:01:19.060Z,11.44
2022-09-18T00:01:29.126Z,11.42
2022-09-18T00:01:39.245Z,11.42
2022-09-18T00:01:49.477Z,11.42
2022-09-18T00:01:59.486Z,11.41
2022-09-18T00:02:09.452Z,11.41
2022-09-18T00:02:19.470Z,11.42
2022-09-18T00:02:29.559Z,11.41
2022-09-18T00:02:39.744Z,11.41
2022-09-18T00:02:49.729Z,11.39
2022-09-18T00:02:59.727Z,11.41
2022-09-18T00:03:09.870Z,11.41
2022-09-18T00:03:19.985Z,11.39
2022-09-18T00:03:30.047Z,11.39
2022-09-18T00:03:40.117Z,11.39
2022-09-18T00:03:50.242Z,11.41
2022-09-18T00:04:00.304Z,11.39
2022-09-18T00:04:10.398Z,11.39
2022-09-18T00:04:20.469Z,11.39
2022-09-18T00:04:30.577Z,11.38
2022-09-18T00:04:40.668Z,11.38
2022-09-18T00:04:50.729Z,11.38
2022-09-18T00:05:00.788Z,11.39
2022-09-18T00:05:10.855Z,11.38
2022-09-18T00:05:20.927Z,11.38
2022-09-18T00:05:30.987Z,11.38
2022-09-18T00:05:41.067Z,11.38
2022-09-18T00:05:51.216Z,11.36
2022-09-18T00:06:01.305Z,11.36
2022-09-18T00:06:11.371Z,11.38
2022-09-18T00:06:21.426Z,11.35
2022-09-18T00:06:31.467Z,11.36
2022-09-18T00:06:41.545Z,11.33
2022-09-18T00:06:51.607Z,11.35
2022-09-18T00:07:01.678Z,11.33
2022-09-18T00:07:11.737Z,11.33
2022-09-18T00:07:21.797Z,11.31
2022-09-18T00:07:31.889Z,11.31
2022-09-18T00:07:42.003Z,11.31
2022-09-18T00:07:52.068Z,11.31
2022-09-18T00:08:02.147Z,11.31
2022-09-18T00:08:12.283Z,11.33
2022-09-18T00:08:22.316Z,11.31
2022-09-18T00:08:32.377Z,11.30
2022-09-18T00:08:42.464Z,11.31
2022-09-18T00:08:52.542Z,11.31
2022-09-18T00:09:02.655Z,11.30
2022-09-18T00:09:12.700Z,11.31
2022-09-18T00:09:22.766Z,11.31
2022-09-18T00:09:32.827Z,11.30
2022-09-18T00:09:42.895Z,11.30
2022-09-18T00:09:52.956Z,11.30
2022-09-18T00:10:05.617Z,11.28
2022-09-18T00:10:13.146Z,11.28
2022-09-18T00:10:23.220Z,11.28
2022-09-18T00:10:33.335Z,11.28
2022-09-18T00:10:43.397Z,11.28
2022-09-18T00:10:53.467Z,11.28
2022-09-18T00:11:03.687Z,11.27
2022-09-18T00:11:13.614Z,11.27
2022-09-18T00:11:23.657Z,11.27
2022-09-18T00:11:33.747Z,11.27
2022-09-18T00:11:43.828Z,11.26
2022-09-18T00:11:53.909Z,11.27
2022-09-18T00:12:03.987Z,11.26
2022-09-18T00:12:14.058Z,11.26
2022-09-18T00:12:24.197Z,11.26
2022-09-18T00:12:34.255Z,11.26
2022-09-18T00:12:44.318Z,11.26
2022-09-18T00:12:54.428Z,11.26
2022-09-18T00:13:04.520Z,11.26
2022-09-18T00:13:14.595Z,11.26
2022-09-18T00:13:24.704Z,11.24
2022-09-18T00:13:34.838Z,11.24
2022-09-18T00:13:44.900Z,11.24
2022-09-18T00:13:54.987Z,11.27
2022-09-18T00:14:05.056Z,11.23
2022-09-18T00:14:15.159Z,11.23
2022-09-18T00:14:25.226Z,11.23
2022-09-18T00:14:35.301Z,11.24
2022-09-18T00:14:45.377Z,11.21
2022-09-18T00:14:55.443Z,11.21
2022-09-18T00:15:05.534Z,11.21
2022-09-18T00:15:15.597Z,11.21
2022-09-18T00:15:25.666Z,11.21
2022-09-18T00:15:35.736Z,11.20
2022-09-18T00:15:45.886Z,11.21
2022-09-18T00:15:56.098Z,11.20
2022-09-18T00:16:06.110Z,11.21
2022-09-18T00:16:16.375Z,11.19
2022-09-18T00:16:26.369Z,11.19
2022-09-18T00:16:36.493Z,11.19
2022-09-18T00:16:46.610Z,11.19
2022-09-18T00:16:56.716Z,11.20
2022-09-18T00:17:09.181Z,11.19
2022-09-18T00:17:16.856Z,11.19
2022-09-18T00:17:26.945Z,11.19
2022-09-18T00:17:37.026Z,11.19
2022-09-18T00:17:47.178Z,11.19
2022-09-18T00:17:57.259Z,11.17
2022-09-18T00:18:07.316Z,11.19
2022-09-18T00:18:17.396Z,11.17
2022-09-18T00:18:27.465Z,11.19
2022-09-18T00:18:37.553Z,11.17
2022-09-18T00:18:47.678Z,11.19
2022-09-18T00:18:57.688Z,11.17
2022-09-18T00:19:07.686Z,11.17
2022-09-18T00:19:17.717Z,11.17
2022-09-18T00:19:27.796Z,11.16
2022-09-18T00:19:37.829Z,11.16
2022-09-18T00:19:47.886Z,11.16
2022-09-18T00:19:57.904Z,11.13
2022-09-18T00:20:07.946Z,11.13
2022-09-18T00:20:17.966Z,11.13
2022-09-18T00:20:27.987Z,11.16
2022-09-18T00:20:37.996Z,11.16
2022-09-18T00:20:48.018Z,11.13
2022-09-18T00:20:58.066Z,11.16
2022-09-18T00:21:08.143Z,11.16
2022-09-18T00:21:18.197Z,11.13
2022-09-18T00:21:28.264Z,11.16
2022-09-18T00:21:38.327Z,11.16
2022-09-18T00:21:48.400Z,11.16
2022-09-18T00:21:58.446Z,11.16
2022-09-18T00:22:08.507Z,11.16
2022-09-18T00:22:18.586Z,11.13
2022-09-18T00:22:28.656Z,11.16
2022-09-18T00:22:38.727Z,11.16
2022-09-18T00:22:48.785Z,11.16
2022-09-18T00:22:58.856Z,11.13
2022-09-18T00:23:08.936Z,11.13
2022-09-18T00:23:19.008Z,11.13
2022-09-18T00:23:29.066Z,11.13
2022-09-18T00:23:39.115Z,11.13
2022-09-18T00:23:49.193Z,11.12
2022-09-18T00:23:59.255Z,11.12
2022-09-18T00:24:09.324Z,11.12
2022-09-18T00:24:19.385Z,11.12
2022-09-18T00:24:29.487Z,11.12
2022-09-18T00:24:39.546Z,11.12
2022-09-18T00:24:49.723Z,11.12
2022-09-18T00:24:59.775Z,11.12
2022-09-18T00:25:09.863Z,11.12
2022-09-18T00:25:19.937Z,11.13
2022-09-18T00:25:30.006Z,11.12
2022-09-18T00:25:40.075Z,11.13
2022-09-18T00:25:50.143Z,11.12
2022-09-18T00:26:00.205Z,11.13
2022-09-18T00:26:10.256Z,11.11
2022-09-18T00:26:20.317Z,11.12
2022-09-18T00:26:30.394Z,11.12
2022-09-18T00:26:40.455Z,11.13
2022-09-18T00:26:50.535Z,11.12
2022-09-18T00:27:00.674Z,11.12
2022-09-18T00:27:10.753Z,11.13
2022-09-18T00:27:20.836Z,11.12
2022-09-18T00:27:30.904Z,11.12
2022-09-18T00:27:40.983Z,11.12
2022-09-18T00:27:51.055Z,11.13
2022-09-18T00:28:01.136Z,11.13
2022-09-18T00:28:11.215Z,11.12
2022-09-18T00:28:21.287Z,11.13
2022-09-18T00:28:31.365Z,11.13
2022-09-18T00:28:41.448Z,11.13
2022-09-18T00:28:51.517Z,11.12
2022-09-18T00:29:01.606Z,11.13
2022-09-18T00:29:11.685Z,11.13
2022-09-18T00:29:21.764Z,11.16
2022-09-18T00:29:31.846Z,11.13
2022-09-18T00:29:41.917Z,11.13
2022-09-18T00:29:51.916Z,11.13
2022-09-18T00:30:01.986Z,11.16
2022-09-18T00:30:12.046Z,11.13
2022-09-18T00:30:22.116Z,11.16
2022-09-18T00:30:32.193Z,11.16
2022-09-18T00:30:42.256Z,11.13
2022-09-18T00:30:52.464Z,11.13
2022-09-18T00:31:02.432Z,11.16
2022-09-18T00:31:12.584Z,11.16
2022-09-18T00:31:22.785Z,11.16
2022-09-18T00:31:32.757Z,11.16
2022-09-18T00:31:42.891Z,11.16
2022-09-18T00:31:52.919Z,11.17
2022-09-18T00:32:02.845Z,11.16
2022-09-18T00:32:12.906Z,11.16
2022-09-18T00:32:22.974Z,11.13
2022-09-18T00:32:33.033Z,11.13
2022-09-18T00:32:43.100Z,11.13
2022-09-18T00:32:53.166Z,11.12
2022-09-18T00:33:03.255Z,11.12
2022-09-18T00:33:13.339Z,11.12
2022-09-18T00:33:23.407Z,11.11
2022-09-18T00:33:33.476Z,11.12
2022-09-18T00:33:43.546Z,11.11
2022-09-18T00:33:53.615Z,11.12
2022-09-18T00:34:03.673Z,11.11
2022-09-18T00:34:13.735Z,11.12
2022-09-18T00:34:23.814Z,11.11
2022-09-18T00:34:33.877Z,11.12
2022-09-18T00:34:44.005Z,11.12
2022-09-18T00:34:54.109Z,11.13
2022-09-18T00:35:04.174Z,11.12
2022-09-18T00:35:14.246Z,11.16
2022-09-18T00:35:24.316Z,11.13
2022-09-18T00:35:34.386Z,11.13
2022-09-18T00:35:44.404Z,11.12
2022-09-18T00:35:54.468Z,11.13
2022-09-18T00:36:04.537Z,11.13
2022-09-18T00:36:14.660Z,11.13
2022-09-18T00:36:24.745Z,11.13
2022-09-18T00:36:34.814Z,11.13
2022-09-18T00:36:44.897Z,11.12
2022-09-18T00:36:54.950Z,11.12
2022-09-18T00:37:05.023Z,11.12
2022-09-18T00:37:15.074Z,11.11
2022-09-18T00:37:25.164Z,11.11
2022-09-18T00:37:35.237Z,11.12
2022-09-18T00:37:45.316Z,11.11
2022-09-18T00:37:55.389Z,11.12
2022-09-18T00:38:05.475Z,11.11
2022-09-18T00:38:15.535Z,11.11
2022-09-18T00:38:25.614Z,11.09
2022-09-18T00:38:35.675Z,11.12
2022-09-18T00:38:45.747Z,11.11
2022-09-18T00:38:55.841Z,11.12
2022-09-18T00:39:05.906Z,11.09
2022-09-18T00:39:15.996Z,11.12
2022-09-18T00:39:26.076Z,11.11
2022-09-18T00:39:36.145Z,11.12
2022-09-18T00:39:46.224Z,11.09
2022-09-18T00:39:56.420Z,11.11
2022-09-18T00:40:06.595Z,11.11
2022-09-18T00:40:16.711Z,11.12
2022-09-18T00:40:26.870Z,11.09
2022-09-18T00:40:37.068Z,11.11
2022-09-18T00:40:46.983Z,11.11
2022-09-18T00:40:57.067Z,11.11
2022-09-18T00:41:07.174Z,11.11
2022-09-18T00:41:17.257Z,11.11
2022-09-18T00:41:27.342Z,11.11
2022-09-18T00:41:37.408Z,11.11
2022-09-18T00:41:47.493Z,11.11
2022-09-18T00:41:57.587Z,11.11
2022-09-18T00:42:07.675Z,11.11
2022-09-18T00:42:17.745Z,11.12
2022-09-18T00:42:27.824Z,11.12
2022-09-18T00:42:37.904Z,11.12
2022-09-18T00:42:47.992Z,11.12
2022-09-18T00:42:58.056Z,11.12
2022-09-18T00:43:08.144Z,11.12
2022-09-18T00:43:18.218Z,11.12
2022-09-18T00:43:28.293Z,11.12
2022-09-18T00:43:38.354Z,11.11
2022-09-18T00:43:48.429Z,11.12
2022-09-18T00:43:58.498Z,11.11
2022-09-18T00:44:08.574Z,11.11
2022-09-18T00:44:18.636Z,11.09
2022-09-18T00:44:28.704Z,11.09
2022-09-18T00:44:38.793Z,11.09
2022-09-18T00:44:48.854Z,11.09
2022-09-18T00:44:58.965Z,11.09
2022-09-18T00:45:09.036Z,11.08
2022-09-18T00:45:19.122Z,11.08
2022-09-18T00:45:29.227Z,11.09
2022-09-18T00:45:39.326Z,11.08
2022-09-18T00:45:49.394Z,11.09
2022-09-18T00:45:59.453Z,11.08
2022-09-18T00:46:09.580Z,11.08
2022-09-18T00:46:19.706Z,11.06
2022-09-18T00:46:29.825Z,11.08
2022-09-18T00:46:40.021Z,11.06
2022-09-18T00:46:49.965Z,11.05
2022-09-18T00:47:00.026Z,11.06
2022-09-18T00:47:10.105Z,11.06
2022-09-18T00:47:20.178Z,11.05
2022-09-18T00:47:30.234Z,11.05
2022-09-18T00:47:40.303Z,11.06
2022-09-18T00:47:50.366Z,11.05
2022-09-18T00:48:00.445Z,11.05
2022-09-18T00:48:10.514Z,11.05
2022-09-18T00:48:20.594Z,11.05
2022-09-18T00:48:30.685Z,11.05
2022-09-18T00:48:40.765Z,11.05
2022-09-18T00:48:50.892Z,11.06
2022-09-18T00:49:01.012Z,11.06
2022-09-18T00:49:11.084Z,11.05
2022-09-18T00:49:21.184Z,11.06
2022-09-18T00:49:31.244Z,11.05
2022-09-18T00:49:41.333Z,11.06
2022-09-18T00:49:51.423Z,11.06
2022-09-18T00:50:01.486Z,11.06
2022-09-18T00:50:11.545Z,11.06
2022-09-18T00:50:21.613Z,11.05
2022-09-18T00:50:31.662Z,11.06
2022-09-18T00:50:41.723Z,11.05
2022-09-18T00:50:51.795Z,11.05
2022-09-18T00:51:01.854Z,11.05
2022-09-18T00:51:11.944Z,11.05
2022-09-18T00:51:22.044Z,11.05
2022-09-18T00:51:32.165Z,11.03
2022-09-18T00:51:42.252Z,11.05
2022-09-18T00:51:52.323Z,11.05
2022-09-18T00:52:02.394Z,11.03
2022-09-18T00:52:12.454Z,11.03
2022-09-18T00:52:22.531Z,11.03
2022-09-18T00:52:32.604Z,11.03
2022-09-18T00:52:42.664Z,11.05
2022-09-18T00:52:52.763Z,11.05
2022-09-18T00:53:02.832Z,11.05
2022-09-18T00:53:12.905Z,11.03
2022-09-18T00:53:22.976Z,11.03
2022-09-18T00:53:33.073Z,11.03
2022-09-18T00:53:43.153Z,11.05
2022-09-18T00:53:53.222Z,11.03
2022-09-18T00:54:03.292Z,11.03
2022-09-18T00:54:13.362Z,11.03
2022-09-18T00:54:23.857Z,11.03
2022-09-18T00:54:33.451Z,11.02
2022-09-18T00:54:43.564Z,11.03
2022-09-18T00:54:53.644Z,11.03
2022-09-18T00:55:03.723Z,11.03
2022-09-18T00:55:13.794Z,11.02
2022-09-18T00:55:23.872Z,11.03
2022-09-18T00:55:33.945Z,11.01
2022-09-18T00:55:44.013Z,11.02
2022-09-18T00:55:54.085Z,11.02
2022-09-18T00:56:04.144Z,11.02
2022-09-18T00:56:14.242Z,11.01
2022-09-18T00:56:24.304Z,11.02
2022-09-18T00:56:34.383Z,11.02
2022-09-18T00:56:44.472Z,11.01
2022-09-18T00:56:54.554Z,11.01
2022-09-18T00:57:04.632Z,11.01
2022-09-18T00:57:14.694Z,11.01
2022-09-18T00:57:27.396Z,10.99
2022-09-18T00:57:34.901Z,11.01
2022-09-18T00:57:44.964Z,10.99
2022-09-18T00:57:55.058Z,11.01
2022-09-18T00:58:05.154Z,11.01
2022-09-18T00:58:15.233Z,11.01
2022-09-18T00:58:25.313Z,11.01
2022-09-18T00:58:35.395Z,11.01
2022-09-18T00:58:45.472Z,11.01
2022-09-18T00:58:55.559Z,11.02
2022-09-18T00:59:05.612Z,11.01
2022-09-18T00:59:15.674Z,11.02
2022-09-18T00:59:25.746Z,11.01
2022-09-18T00:59:35.821Z,11.01
2022-09-18T00:59:45.885Z,11.02
2022-09-18T00:59:55.973Z,11.02
2022-09-18T01:00:06.103Z,11.01
2022-09-18T01:00:16.233Z,10.99
2022-09-18T01:00:26.299Z,10.99
2022-09-18T01:00:36.385Z,10.99
2022-09-18T01:00:46.468Z,10.98
2022-09-18T01:00:56.647Z,10.98
2022-09-18T01:01:06.626Z,10.95
2022-09-18T01:01:16.782Z,10.94
2022-09-18T01:01:26.931Z,10.94
2022-09-18T01:01:36.895Z,10.94
2022-09-18T01:01:47.041Z,10.93
2022-09-18T01:01:57.232Z,10.91
2022-09-18T01:02:07.199Z,10.91
2022-09-18T01:02:17.318Z,10.88
2022-09-18T01:02:27.480Z,10.90
2022-09-18T01:02:37.372Z,10.88
2022-09-18T01:02:47.437Z,10.90
2022-09-18T01:02:57.513Z,10.87
2022-09-18T01:03:07.575Z,10.88
2022-09-18T01:03:17.644Z,10.88
2022-09-18T01:03:27.713Z,10.87
2022-09-18T01:03:37.782Z,10.88
2022-09-18T01:03:47.883Z,10.87
2022-09-18T01:03:57.963Z,10.87
2022-09-18T01:04:08.110Z,10.87
2022-09-18T01:04:18.155Z,10.87
2022-09-18T01:04:28.260Z,10.86
2022-09-18T01:04:38.323Z,10.86
2022-09-18T01:04:48.392Z,10.86
2022-09-18T01:04:58.453Z,10.86
2022-09-18T01:05:08.542Z,10.84
2022-09-18T01:05:18.611Z,10.84
2022-09-18T01:05:28.693Z,10.84
2022-09-18T01:05:38.786Z,10.84
2022-09-18T01:05:48.835Z,10.83
2022-09-18T01:05:58.922Z,10.83
2022-09-18T01:06:08.990Z,10.81
2022-09-18T01:06:19.073Z,10.84
2022-09-18T01:06:29.144Z,10.83
2022-09-18T01:06:39.214Z,10.83
2022-09-18T01:06:49.295Z,10.84
2022-09-18T01:06:59.382Z,10.84
2022-09-18T01:07:09.442Z,10.84
2022-09-18T01:07:19.583Z,10.84
2022-09-18T01:07:29.653Z,10.86
2022-09-18T01:07:39.724Z,10.86
2022-09-18T01:07:49.793Z,10.86
2022-09-18T01:07:59.863Z,10.84
2022-09-18T01:08:09.941Z,10.87
2022-09-18T01:08:20.013Z,10.86
2022-09-18T01:08:30.080Z,10.86
2022-09-18T01:08:43.927Z,10.86
2022-09-18T01:08:50.232Z,10.86
2022-09-18T01:09:00.333Z,10.86
2022-09-18T01:09:10.397Z,10.86
2022-09-18T01:09:28.344Z,10.87
2022-09-18T01:09:31.403Z,10.86
2022-09-18T01:09:41.464Z,10.88
2022-09-18T01:09:51.552Z,10.87
2022-09-18T01:10:01.622Z,10.87
2022-09-18T01:10:11.691Z,10.87
2022-09-18T01:10:21.751Z,10.87
2022-09-18T01:10:31.812Z,10.87
2022-09-18T01:10:41.932Z,10.87
2022-09-18T01:10:51.996Z,10.87
2022-09-18T01:11:02.093Z,10.87
2022-09-18T01:11:15.395Z,10.86
2022-09-18T01:11:25.529Z,10.86
2022-09-18T01:11:35.592Z,10.86
2022-09-18T01:11:45.644Z,10.86
2022-09-18T01:11:55.681Z,10.84
2022-09-18T01:12:05.734Z,10.84
2022-09-18T01:12:15.734Z,10.83
2022-09-18T01:12:25.784Z,10.83
2022-09-18T01:12:35.835Z,10.84
2022-09-18T01:12:45.904Z,10.83
2022-09-18T01:12:55.944Z,10.84
2022-09-18T01:13:05.993Z,10.83
2022-09-18T01:13:16.032Z,10.84
2022-09-18T01:13:26.083Z,10.84
2022-09-18T01:13:36.132Z,10.84
2022-09-18T01:13:46.182Z,10.84
2022-09-18T01:13:56.213Z,10.84
2022-09-18T01:14:06.261Z,10.84
2022-09-18T01:14:16.302Z,10.86
2022-09-18T01:14:26.343Z,10.84
2022-09-18T01:14:36.383Z,10.84
2022-09-18T01:14:46.421Z,10.84
2022-09-18T01:14:56.475Z,10.84
2022-09-18T01:15:06.523Z,10.84
2022-09-18T01:15:16.563Z,10.84
2022-09-18T01:15:26.611Z,10.84
2022-09-18T01:15:36.653Z,10.84
2022-09-18T01:15:46.738Z,10.84
2022-09-18T01:15:56.842Z,10.86
2022-09-18T01:16:06.896Z,10.84
2022-09-18T01:16:17.005Z,10.83
2022-09-18T01:16:27.071Z,10.83
2022-09-18T01:16:37.212Z,10.83
2022-09-18T01:16:47.114Z,10.83
2022-09-18T01:16:57.285Z,10.84
2022-09-18T01:17:07.322Z,10.83
2022-09-18T01:17:17.370Z,10.83
2022-09-18T01:17:27.404Z,10.81
2022-09-18T01:17:37.445Z,10.81
2022-09-18T01:17:47.493Z,10.81
2022-09-18T01:17:57.541Z,10.80
2022-09-18T01:18:07.582Z,10.81
2022-09-18T01:18:18.552Z,10.80
2022-09-18T01:18:28.616Z,10.81
2022-09-18T01:18:38.743Z,10.80
2022-09-18T01:18:48.772Z,10.81
2022-09-18T01:18:58.823Z,10.81
2022-09-18T01:19:08.884Z,10.83
2022-09-18T01:19:18.952Z,10.80
2022-09-18T01:19:28.992Z,10.78
2022-09-18T01:19:39.022Z,10.80
2022-09-18T01:19:49.063Z,10.78
2022-09-18T01:19:59.111Z,10.78
2022-09-18T01:20:09.155Z,10.80
2022-09-18T01:20:19.193Z,10.78
2022-09-18T01:20:29.253Z,10.78
2022-09-18T01:20:39.301Z,10.76
2022-09-18T01:20:49.395Z,10.76
2022-09-18T01:20:59.498Z,10.76
2022-09-18T01:21:09.543Z,10.76
2022-09-18T01:21:19.601Z,10.76
2022-09-18T01:21:29.701Z,10.76
2022-09-18T01:21:39.751Z,10.76
2022-09-18T01:21:49.803Z,10.76
2022-09-18T01:21:59.866Z,10.76
2022-09-18T01:22:09.925Z,10.76
2022-09-18T01:22:19.963Z,10.76
2022-09-18T01:22:30.055Z,10.78
2022-09-18T01:22:40.093Z,10.76
2022-09-18T01:22:50.154Z,10.78
2022-09-18T01:23:00.253Z,10.78
2022-09-18T01:23:10.299Z,10.76
2022-09-18T01:23:20.406Z,10.75
2022-09-18T01:23:30.450Z,10.75
2022-09-18T01:23:40.472Z,10.75
2022-09-18T01:23:50.514Z,10.73
2022-09-18T01:24:00.611Z,10.72
2022-09-18T01:24:10.670Z,10.73
2022-09-18T01:24:20.813Z,10.72
2022-09-18T01:24:30.852Z,10.72
2022-09-18T01:24:41.838Z,10.70
2022-09-18T01:24:51.864Z,10.72
2022-09-18T01:25:01.900Z,10.73
2022-09-18T01:25:11.943Z,10.73
2022-09-18T01:25:21.992Z,10.72
2022-09-18T01:25:32.032Z,10.72
2022-09-18T01:25:42.071Z,10.72
2022-09-18T01:25:52.134Z,10.73
2022-09-18T01:26:02.211Z,10.72
2022-09-18T01:26:12.254Z,10.72
2022-09-18T01:26:22.412Z,10.72
2022-09-18T01:26:32.413Z,10.72
2022-09-18T01:26:42.582Z,10.70
2022-09-18T01:26:52.671Z,10.72
2022-09-18T01:27:02.752Z,10.70
2022-09-18T01:27:12.774Z,10.70
2022-09-18T01:27:22.820Z,10.70
2022-09-18T01:27:32.852Z,10.70
2022-09-18T01:27:42.901Z,10.69
2022-09-18T01:27:52.952Z,10.70
2022-09-18T01:28:02.982Z,10.69
2022-09-18T01:28:13.021Z,10.69
2022-09-18T01:28:23.072Z,10.69
2022-09-18T01:28:33.120Z,10.70
2022-09-18T01:28:43.193Z,10.70
2022-09-18T01:28:53.232Z,10.70
2022-09-18T01:29:03.271Z,10.70
2022-09-18T01:29:13.335Z,10.70
2022-09-18T01:29:23.392Z,10.70
2022-09-18T01:29:33.422Z,10.70
2022-09-18T01:29:43.451Z,10.70
2022-09-18T01:29:53.502Z,10.70
2022-09-18T01:30:03.552Z,10.72
2022-09-18T01:30:13.633Z,10.72
2022-09-18T01:30:23.680Z,10.70
2022-09-18T01:30:33.722Z,10.70
2022-09-18T01:30:43.751Z,10.72
2022-09-18T01:30:53.815Z,10.69
2022-09-18T01:31:03.862Z,10.69
2022-09-18T01:31:14.035Z,10.69
2022-09-18T01:31:24.117Z,10.69
2022-09-18T01:31:34.246Z,10.70
2022-09-18T01:31:44.342Z,10.69
2022-09-18T01:31:54.413Z,10.70
2022-09-18T01:32:04.453Z,10.70
2022-09-18T01:32:14.511Z,10.72
2022-09-18T01:32:24.552Z,10.70
2022-09-18T01:32:34.581Z,10.69
2022-09-18T01:32:44.622Z,10.70
2022-09-18T01:32:54.663Z,10.70
2022-09-18T01:33:04.700Z,10.70
2022-09-18T01:33:14.731Z,10.70
2022-09-18T01:33:24.766Z,10.69
2022-09-18T01:33:36.738Z,10.69
2022-09-18T01:33:46.769Z,10.69
2022-09-18T01:33:56.794Z,10.69
2022-09-18T01:34:06.833Z,10.69
2022-09-18T01:34:16.881Z,10.70
2022-09-18T01:34:26.980Z,10.69
2022-09-18T01:34:37.003Z,10.70
2022-09-18T01:34:47.041Z,10.69
2022-09-18T01:34:57.093Z,10.70
2022-09-18T01:35:18.786Z,10.70
2022-09-18T01:35:39.993Z,10.69
2022-09-18T01:35:41.886Z,10.69
2022-09-18T01:35:44.335Z,10.68
2022-09-18T01:35:50.033Z,10.68
2022-09-18T01:36:00.104Z,10.68
2022-09-18T01:36:10.211Z,10.69
2022-09-18T01:36:20.270Z,10.69
2022-09-18T01:36:30.330Z,10.69
2022-09-18T01:36:40.424Z,10.69
2022-09-18T01:36:50.470Z,10.69
2022-09-18T01:37:00.512Z,10.69
2022-09-18T01:37:10.590Z,10.70
2022-09-18T01:37:20.634Z,10.69
2022-09-18T01:37:30.750Z,10.68
2022-09-18T01:37:40.813Z,10.69
2022-09-18T01:37:50.862Z,10.69
2022-09-18T01:38:00.922Z,10.70
2022-09-18T01:38:10.961Z,10.68
2022-09-18T01:38:21.031Z,10.69
2022-09-18T01:38:31.089Z,10.68
2022-09-18T01:38:41.118Z,10.69
2022-09-18T01:38:51.169Z,10.68
2022-09-18T01:39:01.330Z,10.69
2022-09-18T01:39:11.221Z,10.69
2022-09-18T01:39:21.291Z,10.68
2022-09-18T01:39:31.362Z,10.68
2022-09-18T01:39:41.423Z,10.68
2022-09-18T01:39:51.499Z,10.68
2022-09-18T01:40:01.589Z,10.66
2022-09-18T01:40:11.715Z,10.66
2022-09-18T01:40:21.793Z,10.66
2022-09-18T01:40:31.884Z,10.66
2022-09-18T01:40:41.962Z,10.65
2022-09-18T01:40:52.000Z,10.66
2022-09-18T01:41:02.040Z,10.65
2022-09-18T01:41:12.098Z,10.65
2022-09-18T01:41:22.138Z,10.65
2022-09-18T01:41:32.192Z,10.66
2022-09-18T01:41:42.312Z,10.63
2022-09-18T01:41:52.362Z,10.65
2022-09-18T01:42:02.420Z,10.65
2022-09-18T01:42:12.471Z,10.65
2022-09-18T01:42:22.552Z,10.65
2022-09-18T01:42:32.602Z,10.63
2022-09-18T01:42:42.652Z,10.63
2022-09-18T01:42:52.712Z,10.63
2022-09-18T01:43:02.745Z,10.62
2022-09-18T01:43:12.848Z,10.63
2022-09-18T01:43:22.902Z,10.62
2022-09-18T01:43:32.954Z,10.63
2022-09-18T01:43:42.998Z,10.62
2022-09-18T01:43:53.041Z,10.63
2022-09-18T01:44:03.109Z,10.63
2022-09-18T01:44:13.173Z,10.62
2022-09-18T01:44:23.229Z,10.62
2022-09-18T01:44:33.285Z,10.62
2022-09-18T01:44:43.351Z,10.63
2022-09-18T01:44:53.392Z,10.65
2022-09-18T01:45:03.432Z,10.63
2022-09-18T01:45:13.480Z,10.63
2022-09-18T01:45:23.564Z,10.63
2022-09-18T01:45:33.681Z,10.65
2022-09-18T01:45:43.751Z,10.63
2022-09-18T01:45:53.820Z,10.65
2022-09-18T01:46:03.970Z,10.62
2022-09-18T01:46:14.117Z,10.63
2022-09-18T01:46:24.324Z,10.63
2022-09-18T01:46:34.329Z,10.63
2022-09-18T01:46:44.300Z,10.63
2022-09-18T01:46:54.430Z,10.65
2022-09-18T01:47:04.499Z,10.63
2022-09-18T01:47:14.570Z,10.63
2022-09-18T01:47:24.588Z,10.63
2022-09-18T01:47:34.647Z,10.63
2022-09-18T01:47:44.743Z,10.63
2022-09-18T01:47:54.790Z,10.65
2022-09-18T01:48:04.950Z,10.63
2022-09-18T01:48:14.991Z,10.63
2022-09-18T01:48:25.030Z,10.63
2022-09-18T01:48:35.073Z,10.63
2022-09-18T01:48:45.131Z,10.65
2022-09-18T01:48:55.210Z,10.63
2022-09-18T01:49:05.299Z,10.63
2022-09-18T01:49:15.331Z,10.65
2022-09-18T01:49:25.383Z,10.63
2022-09-18T01:49:35.431Z,10.63
2022-09-18T01:49:45.472Z,10.65
2022-09-18T01:49:55.527Z,10.65
2022-09-18T01:50:05.579Z,10.65
2022-09-18T01:50:15.615Z,10.65
2022-09-18T01:50:25.661Z,10.65
2022-09-18T01:50:35.710Z,10.63
2022-09-18T01:50:45.762Z,10.63
2022-09-18T01:50:55.810Z,10.63
2022-09-18T01:51:05.889Z,10.63
2022-09-18T01:51:15.949Z,10.63
2022-09-18T01:51:25.990Z,10.63
2022-09-18T01:51:36.031Z,10.62
2022-09-18T01:51:46.079Z,10.62
2022-09-18T01:51:56.119Z,10.62
2022-09-18T01:52:06.162Z,10.63
2022-09-18T01:52:16.190Z,10.63
2022-09-18T01:52:26.271Z,10.62
2022-09-18T01:52:36.301Z,10.63
2022-09-18T01:52:46.358Z,10.65
2022-09-18T01:52:56.379Z,10.63
2022-09-18T01:53:06.438Z,10.63
2022-09-18T01:53:16.469Z,10.63
2022-09-18T01:53:26.540Z,10.62
2022-09-18T01:53:36.570Z,10.62
2022-09-18T01:53:46.620Z,10.62
2022-09-18T01:53:56.650Z,10.63
2022-09-18T01:54:06.729Z,10.62
2022-09-18T01:54:16.810Z,10.62
2022-09-18T01:54:26.866Z,10.63
2022-09-18T01:54:39.569Z,10.63
2022-09-18T01:54:47.061Z,10.63
2022-09-18T01:54:57.109Z,10.63
2022-09-18T01:55:07.130Z,10.63
2022-09-18T01:55:17.167Z,10.65
2022-09-18T01:55:27.201Z,10.63
2022-09-18T01:55:37.250Z,10.63
2022-09-18T01:55:47.371Z,10.63
2022-09-18T01:55:57.422Z,10.63
2022-09-18T01:56:07.488Z,10.63
2022-09-18T01:56:17.531Z,10.62
2022-09-18T01:56:27.561Z,10.63
2022-09-18T01:56:37.621Z,10.63
2022-09-18T01:56:47.678Z,10.63
2022-09-18T01:56:57.712Z,10.65
2022-09-18T01:57:07.749Z,10.63
2022-09-18T01:57:17.790Z,10.65
2022-09-18T01:57:27.821Z,10.63
2022-09-18T01:57:37.876Z,10.63
2022-09-18T01:57:47.898Z,10.62
2022-09-18T01:57:57.929Z,10.63
2022-09-18T01:58:07.970Z,10.63
2022-09-18T01:58:18.038Z,10.63
2022-09-18T01:58:28.070Z,10.60
2022-09-18T01:58:38.119Z,10.62
2022-09-18T01:58:48.160Z,10.62
2022-09-18T01:58:58.231Z,10.62
2022-09-18T01:59:08.258Z,10.62
2022-09-18T01:59:18.289Z,10.63
2022-09-18T01:59:28.321Z,10.62
2022-09-18T01:59:38.401Z,10.63
2022-09-18T01:59:48.450Z,10.62
2022-09-18T01:59:58.509Z,10.63
2022-09-18T02:00:08.529Z,10.62
2022-09-18T02:00:18.568Z,10.62
2022-09-18T02:00:28.603Z,10.63
2022-09-18T02:00:38.657Z,10.63
2022-09-18T02:00:48.700Z,10.65
2022-09-18T02:00:58.738Z,10.65
2022-09-18T02:01:08.791Z,10.65
2022-09-18T02:01:18.884Z,10.63
2022-09-18T02:01:29.006Z,10.63
2022-09-18T02:01:39.036Z,10.63
2022-09-18T02:01:49.137Z,10.63
2022-09-18T02:01:59.300Z,10.63
2022-09-18T02:02:09.300Z,10.62
2022-09-18T02:02:19.414Z,10.63
2022-09-18T02:02:29.435Z,10.62
2022-09-18T02:02:39.498Z,10.60
2022-09-18T02:02:50.287Z,10.62
2022-09-18T02:03:00.048Z,10.62
2022-09-18T02:03:10.119Z,10.60
2022-09-18T02:03:20.228Z,10.62
2022-09-18T02:03:30.241Z,10.63
2022-09-18T02:03:40.282Z,10.62
2022-09-18T02:03:50.370Z,10.63
2022-09-18T02:04:00.449Z,10.62
2022-09-18T02:04:10.499Z,10.62
2022-09-18T02:04:20.599Z,10.63
2022-09-18T02:04:30.649Z,10.62
2022-09-18T02:04:40.768Z,10.62
2022-09-18T02:04:50.822Z,10.62
2022-09-18T02:05:00.900Z,10.63
2022-09-18T02:05:10.940Z,10.62
2022-09-18T02:05:20.981Z,10.62
2022-09-18T02:05:31.079Z,10.62
2022-09-18T02:05:41.116Z,10.60
2022-09-18T02:05:51.219Z,10.60
2022-09-18T02:06:01.300Z,10.60
2022-09-18T02:06:11.366Z,10.62
2022-09-18T02:06:21.416Z,10.62
2022-09-18T02:06:31.450Z,10.60
2022-09-18T02:06:41.482Z,10.60
2022-09-18T02:06:51.520Z,10.62
2022-09-18T02:07:01.550Z,10.60
2022-09-18T02:07:11.589Z,10.62
2022-09-18T02:07:21.649Z,10.62
2022-09-18T02:07:31.712Z,10.62
2022-09-18T02:07:41.739Z,10.62
2022-09-18T02:07:51.780Z,10.62
2022-09-18T02:08:01.820Z,10.62
2022-09-18T02:08:11.866Z,10.62
2022-09-18T02:08:21.910Z,10.60
2022-09-18T02:08:31.958Z,10.62
2022-09-18T02:08:41.980Z,10.62
2022-09-18T02:08:52.018Z,10.62
2022-09-18T02:09:02.153Z,10.60
2022-09-18T02:09:12.219Z,10.60
2022-09-18T02:09:22.259Z,10.60
2022-09-18T02:09:32.292Z,10.60
2022-09-18T02:09:42.326Z,10.58
2022-09-18T02:09:52.356Z,10.60